sensor_id;sensor_type;location;lat;lon;timestamp;pressure;altitude;pressure_sealevel;temperature;humidity
63903;BME280;50072;50.678;13.938;2023-01-27T00:00:20;99917.81;;;-0.14;85.61
63903;BME280;50072;50.678;13.938;2023-01-27T00:03:08;99916.78;;;-0.21;86.44
63903;BME280;50072;50.678;13.938;2023-01-27T00:05:35;99915.59;;;-0.35;86.88
63903;BME280;50072;50.678;13.938;2023-01-27T00:08:01;99914.59;;;-0.40;87.53
63903;BME280;50072;50.678;13.938;2023-01-27T00:10:27;99913.00;;;-0.33;87.86
63903;BME280;50072;50.678;13.938;2023-01-27T00:12:52;99920.00;;;-0.34;87.25
63903;BME280;50072;50.678;13.938;2023-01-27T00:15:37;99910.44;;;-0.30;87.76
63903;BME280;50072;50.678;13.938;2023-01-27T00:18:03;99914.75;;;-0.34;87.74
63903;BME280;50072;50.678;13.938;2023-01-27T00:20:32;99909.50;;;-0.32;87.86
63903;BME280;50072;50.678;13.938;2023-01-27T00:23:26;99921.84;;;-0.30;88.93
63903;BME280;50072;50.678;13.938;2023-01-27T00:26:15;99917.19;;;-0.42;89.46
63903;BME280;50072;50.678;13.938;2023-01-27T00:29:08;99913.63;;;-0.44;89.29
63903;BME280;50072;50.678;13.938;2023-01-27T00:31:40;99919.78;;;-0.43;89.13
63903;BME280;50072;50.678;13.938;2023-01-27T00:34:38;99917.16;;;-0.43;88.96
63903;BME280;50072;50.678;13.938;2023-01-27T00:37:08;99912.81;;;-0.41;89.66
63903;BME280;50072;50.678;13.938;2023-01-27T00:39:41;99920.75;;;-0.40;90.08
63903;BME280;50072;50.678;13.938;2023-01-27T00:42:08;99912.00;;;-0.37;89.85
63903;BME280;50072;50.678;13.938;2023-01-27T00:44:38;99913.03;;;-0.32;89.70
63903;BME280;50072;50.678;13.938;2023-01-27T00:47:24;99915.66;;;-0.32;89.01
63903;BME280;50072;50.678;13.938;2023-01-27T00:50:08;99920.00;;;-0.34;89.76
63903;BME280;50072;50.678;13.938;2023-01-27T00:52:38;99926.03;;;-0.38;89.65
63903;BME280;50072;50.678;13.938;2023-01-27T00:55:08;99933.94;;;-0.38;89.44
63903;BME280;50072;50.678;13.938;2023-01-27T00:57:41;99927.84;;;-0.36;89.70
63903;BME280;50072;50.678;13.938;2023-01-27T01:00:08;99935.78;;;-0.34;89.50
63903;BME280;50072;50.678;13.938;2023-01-27T01:02:40;99940.13;;;-0.35;89.28
63903;BME280;50072;50.678;13.938;2023-01-27T01:05:08;99945.34;;;-0.36;89.73
63903;BME280;50072;50.678;13.938;2023-01-27T01:07:40;99931.41;;;-0.33;90.07
63903;BME280;50072;50.678;13.938;2023-01-27T01:10:09;99930.63;;;-0.29;89.77
63903;BME280;50072;50.678;13.938;2023-01-27T01:12:39;99941.09;;;-0.31;90.69
63903;BME280;50072;50.678;13.938;2023-01-27T01:15:10;99932.41;;;-0.28;90.00
63903;BME280;50072;50.678;13.938;2023-01-27T01:17:38;99935.78;;;-0.34;91.08
63903;BME280;50072;50.678;13.938;2023-01-27T01:20:09;99934.13;;;-0.29;90.56
63903;BME280;50072;50.678;13.938;2023-01-27T01:22:40;99935.03;;;-0.28;91.13
63903;BME280;50072;50.678;13.938;2023-01-27T01:25:08;99929.78;;;-0.28;90.70
63903;BME280;50072;50.678;13.938;2023-01-27T01:27:38;99931.47;;;-0.30;90.11
63903;BME280;50072;50.678;13.938;2023-01-27T01:30:06;99936.56;;;-0.38;90.53
63903;BME280;50072;50.678;13.938;2023-01-27T01:32:38;99941.03;;;-0.34;89.99
63903;BME280;50072;50.678;13.938;2023-01-27T01:35:10;99936.75;;;-0.29;89.75
63903;BME280;50072;50.678;13.938;2023-01-27T01:37:38;99936.75;;;-0.29;89.28
63903;BME280;50072;50.678;13.938;2023-01-27T01:40:09;99935.59;;;-0.42;89.28
63903;BME280;50072;50.678;13.938;2023-01-27T01:43:11;99946.06;;;-0.43;90.47
63903;BME280;50072;50.678;13.938;2023-01-27T01:46:09;99940.88;;;-0.40;90.02
63903;BME280;50072;50.678;13.938;2023-01-27T01:48:41;99936.75;;;-0.29;89.69
63903;BME280;50072;50.678;13.938;2023-01-27T01:53:57;99943.00;;;-0.25;88.72
63903;BME280;50072;50.678;13.938;2023-01-27T01:57:07;99930.59;;;-0.31;88.80
63903;BME280;50072;50.678;13.938;2023-01-27T01:59:46;99926.13;;;-0.33;89.55
63903;BME280;50072;50.678;13.938;2023-01-27T02:02:17;99920.09;;;-0.29;89.34
63903;BME280;50072;50.678;13.938;2023-01-27T02:11:08;99918.47;;;-0.24;89.27
63903;BME280;50072;50.678;13.938;2023-01-27T02:13:40;99922.66;;;-0.32;89.43
63903;BME280;50072;50.678;13.938;2023-01-27T02:16:10;99923.47;;;-0.35;89.26
63903;BME280;50072;50.678;13.938;2023-01-27T02:18:39;99919.00;;;-0.39;89.98
63903;BME280;50072;50.678;13.938;2023-01-27T02:21:11;99916.31;;;-0.42;90.16
63903;BME280;50072;50.678;13.938;2023-01-27T02:26:39;99920.88;;;-0.33;90.07
63903;BME280;50072;50.678;13.938;2023-01-27T02:29:11;99929.47;;;-0.41;89.84
63903;BME280;50072;50.678;13.938;2023-01-27T02:31:38;99927.84;;;-0.36;89.67
63903;BME280;50072;50.678;13.938;2023-01-27T02:34:12;99923.59;;;-0.29;89.17
63903;BME280;50072;50.678;13.938;2023-01-27T02:37:08;99920.09;;;-0.29;88.92
63903;BME280;50072;50.678;13.938;2023-01-27T02:39:42;99926.13;;;-0.33;89.66
63903;BME280;50072;50.678;13.938;2023-01-27T02:42:14;99929.69;;;-0.31;89.17
63903;BME280;50072;50.678;13.938;2023-01-27T02:44:57;99927.97;;;-0.31;89.52
63903;BME280;50072;50.678;13.938;2023-01-27T02:47:38;99919.22;;;-0.30;90.76
63903;BME280;50072;50.678;13.938;2023-01-27T02:50:10;99921.03;;;-0.26;90.03
63903;BME280;50072;50.678;13.938;2023-01-27T02:52:39;99914.88;;;-0.28;90.20
63903;BME280;50072;50.678;13.938;2023-01-27T02:55:09;99921.97;;;-0.24;90.30
63903;BME280;50072;50.678;13.938;2023-01-27T02:57:40;99917.50;;;-0.28;89.76
63903;BME280;50072;50.678;13.938;2023-01-27T03:00:09;99923.66;;;-0.26;90.05
63903;BME280;50072;50.678;13.938;2023-01-27T03:02:38;99927.03;;;-0.31;88.91
63903;BME280;50072;50.678;13.938;2023-01-27T03:05:08;99931.47;;;-0.30;88.94
63903;BME280;50072;50.678;13.938;2023-01-27T03:07:38;99921.00;;;-0.27;89.34
63903;BME280;50072;50.678;13.938;2023-01-27T03:10:10;99925.34;;;-0.29;89.02
63903;BME280;50072;50.678;13.938;2023-01-27T03:12:38;99929.78;;;-0.28;89.45
63903;BME280;50072;50.678;13.938;2023-01-27T03:15:11;99921.75;;;-0.33;89.40
63903;BME280;50072;50.678;13.938;2023-01-27T03:18:09;99926.94;;;-0.36;89.37
63903;BME280;50072;50.678;13.938;2023-01-27T03:20:39;99914.50;;;-0.43;89.06
63903;BME280;50072;50.678;13.938;2023-01-27T03:23:09;99905.97;;;-0.33;89.04
63903;BME280;50072;50.678;13.938;2023-01-27T03:25:35;99907.78;;;-0.30;88.34
63903;BME280;50072;50.678;13.938;2023-01-27T03:28:10;99911.38;;;-0.28;87.75
63903;BME280;50072;50.678;13.938;2023-01-27T03:30:41;99913.75;;;-0.39;87.64
63903;BME280;50072;50.678;13.938;2023-01-27T03:33:08;99903.28;;;-0.36;88.18
63903;BME280;50072;50.678;13.938;2023-01-27T03:35:41;99903.16;;;-0.42;88.23
63903;BME280;50072;50.678;13.938;2023-01-27T03:38:15;99914.59;;;-0.40;87.72
63903;BME280;50072;50.678;13.938;2023-01-27T03:41:03;99912.88;;;-0.40;88.72
63903;BME280;50072;50.678;13.938;2023-01-27T03:44:08;99907.66;;;-0.37;89.41
63903;BME280;50072;50.678;13.938;2023-01-27T03:47:08;99909.47;;;-0.34;88.21
63903;BME280;50072;50.678;13.938;2023-01-27T03:49:38;99907.75;;;-0.32;87.88
63903;BME280;50072;50.678;13.938;2023-01-27T03:52:10;99910.44;;;-0.30;88.11
63903;BME280;50072;50.678;13.938;2023-01-27T03:54:35;99900.75;;;-0.31;87.61
63903;BME280;50072;50.678;13.938;2023-01-27T03:57:08;99905.03;;;-0.37;86.88
63903;BME280;50072;50.678;13.938;2023-01-27T03:59:38;99903.06;;;-0.47;86.92
63903;BME280;50072;50.678;13.938;2023-01-27T04:02:08;99904.84;;;-0.44;88.31
63903;BME280;50072;50.678;13.938;2023-01-27T04:05:08;99906.63;;;-0.43;86.96
63903;BME280;50072;50.678;13.938;2023-01-27T04:08:10;99900.47;;;-0.45;87.26
63903;BME280;50072;50.678;13.938;2023-01-27T04:10:38;99896.88;;;-0.47;87.26
63903;BME280;50072;50.678;13.938;2023-01-27T04:13:11;99896.16;;;-0.42;87.31
63903;BME280;50072;50.678;13.938;2023-01-27T04:15:38;99898.78;;;-0.42;86.98
63903;BME280;50072;50.678;13.938;2023-01-27T04:18:08;99887.34;;;-0.44;86.93
63903;BME280;50072;50.678;13.938;2023-01-27T04:20:38;99897.13;;;-0.38;87.42
63903;BME280;50072;50.678;13.938;2023-01-27T04:23:07;99908.47;;;-0.39;88.13
63903;BME280;50072;50.678;13.938;2023-01-27T04:25:39;99898.00;;;-0.38;88.14
63903;BME280;50072;50.678;13.938;2023-01-27T04:28:08;99901.72;;;-0.28;86.50
63903;BME280;50072;50.678;13.938;2023-01-27T04:30:40;99898.13;;;-0.31;84.34
63903;BME280;50072;50.678;13.938;2023-01-27T04:33:08;99917.25;;;-0.39;85.27
63903;BME280;50072;50.678;13.938;2023-01-27T04:35:44;99915.47;;;-0.41;86.50
63903;BME280;50072;50.678;13.938;2023-01-27T04:38:15;99907.66;;;-0.37;86.96
63903;BME280;50072;50.678;13.938;2023-01-27T04:40:44;99914.75;;;-0.34;85.41
63903;BME280;50072;50.678;13.938;2023-01-27T04:43:31;99915.59;;;-0.35;85.89
63903;BME280;50072;50.678;13.938;2023-01-27T04:46:09;99917.25;;;-0.39;85.58
63903;BME280;50072;50.678;13.938;2023-01-27T04:48:38;99923.22;;;-0.46;85.37
63903;BME280;50072;50.678;13.938;2023-01-27T04:51:10;99920.72;;;-0.41;85.73
63903;BME280;50072;50.678;13.938;2023-01-27T04:53:38;99927.75;;;-0.39;86.56
63903;BME280;50072;50.678;13.938;2023-01-27T04:56:24;99932.22;;;-0.36;86.57
63903;BME280;50072;50.678;13.938;2023-01-27T04:59:09;99926.97;;;-0.35;87.02
63903;BME280;50072;50.678;13.938;2023-01-27T05:01:38;99935.06;;;-0.27;85.75
63903;BME280;50072;50.678;13.938;2023-01-27T05:04:07;99939.19;;;-0.38;86.09
63903;BME280;50072;50.678;13.938;2023-01-27T05:06:35;99937.53;;;-0.33;86.96
63903;BME280;50072;50.678;13.938;2023-01-27T05:09:01;99933.97;;;-0.37;85.41
63903;BME280;50072;50.678;13.938;2023-01-27T05:11:28;99944.28;;;-0.44;85.40
63903;BME280;50072;50.678;13.938;2023-01-27T05:14:02;99945.53;;;-0.30;85.27
63903;BME280;50072;50.678;13.938;2023-01-27T05:16:28;99941.09;;;-0.31;85.26
63903;BME280;50072;50.678;13.938;2023-01-27T05:18:54;99946.41;;;-0.29;85.80
63903;BME280;50072;50.678;13.938;2023-01-27T05:21:24;99945.59;;;-0.27;86.15
63903;BME280;50072;50.678;13.938;2023-01-27T05:23:53;99945.66;;;-0.24;85.00
63903;BME280;50072;50.678;13.938;2023-01-27T05:26:25;99946.44;;;-0.28;85.19
63903;BME280;50072;50.678;13.938;2023-01-27T05:28:56;99947.06;;;-0.38;86.08
63903;BME280;50072;50.678;13.938;2023-01-27T05:31:26;99951.47;;;-0.37;86.16
63903;BME280;50072;50.678;13.938;2023-01-27T05:33:54;99953.34;;;-0.31;86.02
63903;BME280;50072;50.678;13.938;2023-01-27T05:36:22;99962.13;;;-0.32;85.91
63903;BME280;50072;50.678;13.938;2023-01-27T05:38:49;99957.66;;;-0.35;85.78
63903;BME280;50072;50.678;13.938;2023-01-27T05:41:17;99957.44;;;-0.44;85.04
63903;BME280;50072;50.678;13.938;2023-01-27T05:43:44;99952.41;;;-0.35;86.52
63903;BME280;50072;50.678;13.938;2023-01-27T05:46:13;99956.16;;;-0.25;86.51
63903;BME280;50072;50.678;13.938;2023-01-27T05:48:42;99960.59;;;-0.23;87.13
63903;BME280;50072;50.678;13.938;2023-01-27T05:51:09;99965.84;;;-0.23;86.89
63903;BME280;50072;50.678;13.938;2023-01-27T05:53:35;99963.22;;;-0.23;85.58
63903;BME280;50072;50.678;13.938;2023-01-27T05:56:02;99967.66;;;-0.19;85.96
63903;BME280;50072;50.678;13.938;2023-01-27T05:58:29;99976.13;;;-0.32;85.83
63903;BME280;50072;50.678;13.938;2023-01-27T06:00:56;99974.34;;;-0.33;84.98
63903;BME280;50072;50.678;13.938;2023-01-27T06:03:30;99976.91;;;-0.36;84.34
63903;BME280;50072;50.678;13.938;2023-01-27T06:05:56;99976.91;;;-0.36;85.73
63903;BME280;50072;50.678;13.938;2023-01-27T06:08:24;99976.06;;;-0.35;84.35
63903;BME280;50072;50.678;13.938;2023-01-27T06:10:51;99981.34;;;-0.35;84.73
63903;BME280;50072;50.678;13.938;2023-01-27T06:13:20;99981.09;;;-0.44;84.97
63903;BME280;50072;50.678;13.938;2023-01-27T06:15:48;99984.59;;;-0.45;85.87
63903;BME280;50072;50.678;13.938;2023-01-27T06:18:17;99986.44;;;-0.41;87.72
63903;BME280;50072;50.678;13.938;2023-01-27T06:20:44;99995.78;;;-0.54;87.30
63903;BME280;50072;50.678;13.938;2023-01-27T06:23:14;99990.81;;;-0.42;87.94
63903;BME280;50072;50.678;13.938;2023-01-27T06:25:43;99990.72;;;-0.45;87.66
63903;BME280;50072;50.678;13.938;2023-01-27T06:28:10;99994.31;;;-0.43;87.09
63903;BME280;50072;50.678;13.938;2023-01-27T06:30:39;100007.31;;;-0.47;87.94
63903;BME280;50072;50.678;13.938;2023-01-27T06:33:08;100004.88;;;-0.41;87.88
63903;BME280;50072;50.678;13.938;2023-01-27T06:35:39;100007.69;;;-0.32;87.58
63903;BME280;50072;50.678;13.938;2023-01-27T06:38:09;100005.56;;;-0.48;87.74
63903;BME280;50072;50.678;13.938;2023-01-27T06:40:38;100011.66;;;-0.49;88.06
63903;BME280;50072;50.678;13.938;2023-01-27T06:43:11;100010.72;;;-0.52;89.28
63903;BME280;50072;50.678;13.938;2023-01-27T06:45:39;100010.56;;;-0.58;89.20
63903;BME280;50072;50.678;13.938;2023-01-27T06:48:08;100002.72;;;-0.56;89.09
63903;BME280;50072;50.678;13.938;2023-01-27T06:50:39;100012.28;;;-0.60;89.38
63903;BME280;50072;50.678;13.938;2023-01-27T06:53:08;100020.28;;;-0.55;89.84
63903;BME280;50072;50.678;13.938;2023-01-27T06:55:41;100019.69;;;-0.43;89.95
63903;BME280;50072;50.678;13.938;2023-01-27T06:58:10;100027.31;;;-0.54;90.29
63903;BME280;50072;50.678;13.938;2023-01-27T07:00:39;100034.38;;;-0.52;91.05
63903;BME280;50072;50.678;13.938;2023-01-27T07:03:11;100037.00;;;-0.52;91.51
63903;BME280;50072;50.678;13.938;2023-01-27T07:05:39;100036.03;;;-0.57;91.86
63903;BME280;50072;50.678;13.938;2023-01-27T07:08:09;100041.41;;;-0.50;92.03
63903;BME280;50072;50.678;13.938;2023-01-27T07:10:35;100044.06;;;-0.50;90.91
63903;BME280;50072;50.678;13.938;2023-01-27T07:13:11;100052.72;;;-0.55;91.89
63903;BME280;50072;50.678;13.938;2023-01-27T07:15:39;100043.72;;;-0.63;91.57
63903;BME280;50072;50.678;13.938;2023-01-27T07:18:09;100055.13;;;-0.64;92.17
63903;BME280;50072;50.678;13.938;2023-01-27T07:20:39;100048.00;;;-0.68;92.62
63903;BME280;50072;50.678;13.938;2023-01-27T07:23:08;100042.69;;;-0.70;92.36
63903;BME280;50072;50.678;13.938;2023-01-27T07:25:35;100039.34;;;-0.64;92.10
63903;BME280;50072;50.678;13.938;2023-01-27T07:28:10;100044.56;;;-0.65;91.79
63903;BME280;50072;50.678;13.938;2023-01-27T07:30:39;100050.72;;;-0.63;92.13
63903;BME280;50072;50.678;13.938;2023-01-27T07:33:09;100042.84;;;-0.63;91.86
63903;BME280;50072;50.678;13.938;2023-01-27T07:35:38;100046.22;;;-0.69;92.89
63903;BME280;50072;50.678;13.938;2023-01-27T07:38:08;100057.66;;;-0.67;93.08
63903;BME280;50072;50.678;13.938;2023-01-27T07:40:40;100057.88;;;-0.58;93.47
63903;BME280;50072;50.678;13.938;2023-01-27T07:43:09;100061.44;;;-0.56;94.28
63903;BME280;50072;50.678;13.938;2023-01-27T07:45:38;100053.66;;;-0.53;93.28
63903;BME280;50072;50.678;13.938;2023-01-27T07:48:08;100059.91;;;-0.47;92.71
63903;BME280;50072;50.678;13.938;2023-01-27T07:50:39;100059.91;;;-0.47;92.63
63903;BME280;50072;50.678;13.938;2023-01-27T07:53:09;100067.13;;;-0.39;92.36
63903;BME280;50072;50.678;13.938;2023-01-27T07:55:35;100064.75;;;-0.29;92.01
63903;BME280;50072;50.678;13.938;2023-01-27T07:58:01;100071.97;;;-0.21;91.72
63903;BME280;50072;50.678;13.938;2023-01-27T08:00:28;100065.81;;;-0.23;91.53
63903;BME280;50072;50.678;13.938;2023-01-27T08:02:56;100059.81;;;-0.17;91.56
63903;BME280;50072;50.678;13.938;2023-01-27T08:05:23;100063.53;;;-0.07;91.75
63903;BME280;50072;50.678;13.938;2023-01-27T08:07:50;100057.47;;;-0.03;91.14
63903;BME280;50072;50.678;13.938;2023-01-27T08:10:18;100064.59;;;0.01;91.70
63903;BME280;50072;50.678;13.938;2023-01-27T08:12:44;100062.22;;;0.10;91.82
63903;BME280;50072;50.678;13.938;2023-01-27T08:15:10;100059.72;;;0.16;90.35
63903;BME280;50072;50.678;13.938;2023-01-27T08:17:38;100050.91;;;0.14;90.07
63903;BME280;50072;50.678;13.938;2023-01-27T08:20:05;100042.91;;;0.11;89.57
63903;BME280;50072;50.678;13.938;2023-01-27T08:22:37;100047.31;;;0.12;89.15
63903;BME280;50072;50.678;13.938;2023-01-27T08:25:03;100043.63;;;0.04;88.95
63903;BME280;50072;50.678;13.938;2023-01-27T08:27:29;100041.94;;;0.06;89.39
63903;BME280;50072;50.678;13.938;2023-01-27T08:29:56;100037.56;;;0.08;89.14
63903;BME280;50072;50.678;13.938;2023-01-27T08:32:22;100046.28;;;0.06;89.37
63903;BME280;50072;50.678;13.938;2023-01-27T08:34:49;100041.88;;;0.03;88.64
63903;BME280;50072;50.678;13.938;2023-01-27T08:37:15;100036.53;;;0.00;88.77
63903;BME280;50072;50.678;13.938;2023-01-27T08:39:41;100041.88;;;0.03;88.79
63903;BME280;50072;50.678;13.938;2023-01-27T08:42:07;100027.88;;;0.06;88.45
63903;BME280;50072;50.678;13.938;2023-01-27T08:44:33;100030.09;;;0.27;88.42
63903;BME280;50072;50.678;13.938;2023-01-27T08:47:01;100030.44;;;0.42;87.01
63903;BME280;50072;50.678;13.938;2023-01-27T08:49:28;100035.94;;;0.51;86.11
63903;BME280;50072;50.678;13.938;2023-01-27T08:51:54;100030.78;;;0.58;85.30
63903;BME280;50072;50.678;13.938;2023-01-27T08:54:20;100038.06;;;0.71;85.85
63903;BME280;50072;50.678;13.938;2023-01-27T08:56:46;100036.47;;;0.79;84.16
63903;BME280;50072;50.678;13.938;2023-01-27T08:59:13;100050.63;;;0.83;82.76
63903;BME280;50072;50.678;13.938;2023-01-27T09:01:39;100054.84;;;0.75;82.26
63903;BME280;50072;50.678;13.938;2023-01-27T09:04:06;100041.50;;;0.67;82.48
63903;BME280;50072;50.678;13.938;2023-01-27T09:06:32;100058.22;;;0.67;82.47
63903;BME280;50072;50.678;13.938;2023-01-27T09:08:58;100058.16;;;0.64;82.44
63903;BME280;50072;50.678;13.938;2023-01-27T09:11:35;100059.72;;;0.56;82.72
63903;BME280;50072;50.678;13.938;2023-01-27T09:14:02;100058.22;;;0.67;82.67
63903;BME280;50072;50.678;13.938;2023-01-27T09:16:29;100061.91;;;0.76;82.99
63903;BME280;50072;50.678;13.938;2023-01-27T09:18:55;100059.34;;;0.80;81.80
63903;BME280;50072;50.678;13.938;2023-01-27T09:21:23;100059.25;;;0.76;81.91
63903;BME280;50072;50.678;13.938;2023-01-27T09:23:51;100070.72;;;0.78;81.46
63903;BME280;50072;50.678;13.938;2023-01-27T09:26:18;100079.69;;;0.88;81.77
63903;BME280;50072;50.678;13.938;2023-01-27T09:28:44;100067.25;;;0.80;81.62
63903;BME280;50072;50.678;13.938;2023-01-27T09:31:15;100061.97;;;0.80;81.79
63903;BME280;50072;50.678;13.938;2023-01-27T09:33:41;100073.44;;;0.82;81.65
63903;BME280;50072;50.678;13.938;2023-01-27T09:36:10;100077.84;;;0.83;81.54
63903;BME280;50072;50.678;13.938;2023-01-27T09:38:43;100074.97;;;0.73;82.28
63903;BME280;50072;50.678;13.938;2023-01-27T09:47:03;100091.03;;;0.83;82.32
63903;BME280;50072;50.678;13.938;2023-01-27T09:49:38;100093.75;;;0.88;81.43
63903;BME280;50072;50.678;13.938;2023-01-27T10:04:14;100099.72;;;1.24;79.93
63903;BME280;50072;50.678;13.938;2023-01-27T10:13:12;100089.28;;;1.76;78.20
63903;BME280;50072;50.678;13.938;2023-01-27T10:16:04;100101.84;;;1.90;77.05
63903;BME280;50072;50.678;13.938;2023-01-27T10:18:45;100096.59;;;1.94;78.21
63903;BME280;50072;50.678;13.938;2023-01-27T10:27:45;100087.25;;;1.62;78.27
63903;BME280;50072;50.678;13.938;2023-01-27T10:30:15;100089.84;;;1.59;78.00
63903;BME280;50072;50.678;13.938;2023-01-27T10:33:15;100098.59;;;1.57;78.32
63903;BME280;50072;50.678;13.938;2023-01-27T10:45:12;100088.97;;;1.59;77.17
63903;BME280;50072;50.678;13.938;2023-01-27T10:50:44;100098.63;;;1.12;79.83
63903;BME280;50072;50.678;13.938;2023-01-27T10:56:19;100108.34;;;1.13;80.28
63903;BME280;50072;50.678;13.938;2023-01-27T11:02:21;100093.34;;;1.11;80.23
63903;BME280;50072;50.678;13.938;2023-01-27T11:05:08;100094.03;;;1.02;80.16
63903;BME280;50072;50.678;13.938;2023-01-27T11:07:45;100087.16;;;1.09;79.46
63903;BME280;50072;50.678;13.938;2023-01-27T11:10:40;100095.16;;;1.13;79.10
63903;BME280;50072;50.678;13.938;2023-01-27T11:13:38;100081.47;;;1.33;78.90
63903;BME280;50072;50.678;13.938;2023-01-27T11:16:16;100085.31;;;1.50;78.28
63903;BME280;50072;50.678;13.938;2023-01-27T11:18:56;100089.88;;;1.61;76.51
63903;BME280;50072;50.678;13.938;2023-01-27T11:21:35;100081.13;;;1.62;75.56
63903;BME280;50072;50.678;13.938;2023-01-27T11:24:21;100083.06;;;1.73;76.83
63903;BME280;50072;50.678;13.938;2023-01-27T11:26:55;100078.75;;;1.77;74.88
63903;BME280;50072;50.678;13.938;2023-01-27T11:29:39;100067.88;;;1.59;75.11
63903;BME280;50072;50.678;13.938;2023-01-27T11:32:33;100064.19;;;1.50;75.86
63903;BME280;50072;50.678;13.938;2023-01-27T11:35:13;100067.63;;;1.46;75.33
63903;BME280;50072;50.678;13.938;2023-01-27T11:37:44;100068.59;;;1.50;76.31
63903;BME280;50072;50.678;13.938;2023-01-27T11:40:26;100071.25;;;1.51;76.19
63903;BME280;50072;50.678;13.938;2023-01-27T11:42:54;100067.69;;;1.49;75.92
63903;BME280;50072;50.678;13.938;2023-01-27T11:45:24;100067.63;;;1.46;76.25
63903;BME280;50072;50.678;13.938;2023-01-27T11:47:57;100079.91;;;1.43;76.60
63903;BME280;50072;50.678;13.938;2023-01-27T11:50:29;100070.03;;;1.34;78.07
63903;BME280;50072;50.678;13.938;2023-01-27T11:53:09;100074.47;;;1.35;76.22
63903;BME280;50072;50.678;13.938;2023-01-27T11:55:41;100067.50;;;1.37;76.58
63903;BME280;50072;50.678;13.938;2023-01-27T11:58:33;100065.59;;;1.30;77.18
63903;BME280;50072;50.678;13.938;2023-01-27T12:01:08;100068.13;;;1.25;76.91
63903;BME280;50072;50.678;13.938;2023-01-27T12:06:08;100056.59;;;1.18;78.04
63903;BME280;50072;50.678;13.938;2023-01-27T12:08:44;100062.78;;;1.20;78.46
63903;BME280;50072;50.678;13.938;2023-01-27T12:11:24;100055.66;;;1.16;77.63
63903;BME280;50072;50.678;13.938;2023-01-27T12:13:55;100056.50;;;1.15;78.56
63903;BME280;50072;50.678;13.938;2023-01-27T12:16:26;100043.44;;;1.20;79.13
63903;BME280;50072;50.678;13.938;2023-01-27T12:19:04;100043.56;;;1.28;78.15
63903;BME280;50072;50.678;13.938;2023-01-27T12:21:46;100034.97;;;1.38;77.99
63903;BME280;50072;50.678;13.938;2023-01-27T12:24:21;100034.16;;;1.42;78.30
63903;BME280;50072;50.678;13.938;2023-01-27T12:26:51;100032.28;;;1.35;78.05
63903;BME280;50072;50.678;13.938;2023-01-27T12:29:21;100030.56;;;1.37;77.77
63903;BME280;50072;50.678;13.938;2023-01-27T12:31:53;100038.50;;;1.38;77.83
63903;BME280;50072;50.678;13.938;2023-01-27T12:34:28;100039.47;;;1.45;78.03
63903;BME280;50072;50.678;13.938;2023-01-27T12:36:57;100036.69;;;1.36;77.82
63903;BME280;50072;50.678;13.938;2023-01-27T12:42:03;100027.00;;;1.35;78.68
63903;BME280;50072;50.678;13.938;2023-01-27T12:44:42;100020.94;;;1.41;78.81
63903;BME280;50072;50.678;13.938;2023-01-27T12:47:26;100024.31;;;1.32;78.79
63903;BME280;50072;50.678;13.938;2023-01-27T12:50:23;100019.03;;;1.32;79.74
63903;BME280;50072;50.678;13.938;2023-01-27T12:53:12;100020.78;;;1.30;79.66
63903;BME280;50072;50.678;13.938;2023-01-27T12:55:41;100019.06;;;1.33;79.72
63903;BME280;50072;50.678;13.938;2023-01-27T12:58:34;100020.81;;;1.33;80.35
63903;BME280;50072;50.678;13.938;2023-01-27T13:01:28;100028.03;;;1.43;80.07
63903;BME280;50072;50.678;13.938;2023-01-27T13:03:57;100029.78;;;1.41;80.28
63903;BME280;50072;50.678;13.938;2023-01-27T13:06:33;100032.28;;;1.36;80.18
63903;BME280;50072;50.678;13.938;2023-01-27T13:09:02;100033.13;;;1.34;79.55
63903;BME280;50072;50.678;13.938;2023-01-27T13:11:35;100038.41;;;1.34;79.75
63903;BME280;50072;50.678;13.938;2023-01-27T13:14:07;100040.25;;;1.40;79.69
63903;BME280;50072;50.678;13.938;2023-01-27T13:16:36;100041.25;;;1.46;79.97
63903;BME280;50072;50.678;13.938;2023-01-27T13:19:15;100030.72;;;1.46;79.29
63903;BME280;50072;50.678;13.938;2023-01-27T13:21:49;100037.78;;;1.47;79.80
63903;BME280;50072;50.678;13.938;2023-01-27T13:24:33;100035.13;;;1.47;79.73
63903;BME280;50072;50.678;13.938;2023-01-27T13:27:04;100050.16;;;1.51;79.81
63903;BME280;50072;50.678;13.938;2023-01-27T13:29:37;100041.38;;;1.52;79.63
63903;BME280;50072;50.678;13.938;2023-01-27T13:32:16;100049.34;;;1.55;80.00
63903;BME280;50072;50.678;13.938;2023-01-27T13:38:08;100060.31;;;1.30;80.71
63903;BME280;50072;50.678;13.938;2023-01-27T13:40:45;100049.44;;;1.11;81.81
63903;BME280;50072;50.678;13.938;2023-01-27T13:43:30;100047.66;;;1.10;82.45
63903;BME280;50072;50.678;13.938;2023-01-27T13:46:23;100061.69;;;1.09;82.79
63903;BME280;50072;50.678;13.938;2023-01-27T13:48:58;100052.66;;;0.98;82.65
63903;BME280;50072;50.678;13.938;2023-01-27T13:51:29;100061.53;;;1.01;82.94
63903;BME280;50072;50.678;13.938;2023-01-27T13:53:59;100050.28;;;1.10;82.51
63903;BME280;50072;50.678;13.938;2023-01-27T13:59:24;100049.59;;;1.20;82.29
63903;BME280;50072;50.678;13.938;2023-01-27T14:15:51;100055.56;;;1.12;81.48
63903;BME280;50072;50.678;13.938;2023-01-27T14:18:23;100056.50;;;1.15;82.08
63903;BME280;50072;50.678;13.938;2023-01-27T14:21:06;100059.88;;;1.08;81.61
63903;BME280;50072;50.678;13.938;2023-01-27T14:42:26;100081.75;;;1.02;81.88
63903;BME280;50072;50.678;13.938;2023-01-27T14:45:16;100085.09;;;0.94;82.14
63903;BME280;50072;50.678;13.938;2023-01-27T14:47:57;100091.28;;;0.96;82.55
63903;BME280;50072;50.678;13.938;2023-01-27T14:53:06;100087.88;;;1.00;82.11
63903;BME280;50072;50.678;13.938;2023-01-27T14:55:55;100101.84;;;0.96;82.21
63903;BME280;50072;50.678;13.938;2023-01-27T14:58:34;100105.28;;;0.93;82.98
63903;BME280;50072;50.678;13.938;2023-01-27T15:01:20;100101.66;;;0.88;83.14
63903;BME280;50072;50.678;13.938;2023-01-27T15:06:46;100096.25;;;0.80;83.15
63903;BME280;50072;50.678;13.938;2023-01-27T15:09:27;100104.19;;;0.83;83.54